| Date | Time | Temp. (oF) | Dew Point (oF) | Rel. Hum. (%) | Press. (in.) | Wind Dir. | Wind Speed (mph) | Hourly Rainfall (in.) |
|
|---|---|---|---|---|---|---|---|---|---|
| 1 | 11/10 | 00:00 | 52 | 37 | 58 | 30.14 | E | 8 | 0.00 |
| 2 | 11/09 | 23:00 | 53 | 38 | 58 | 30.19 | ESE | 2 | 0.00 |
| 3 | 11/09 | 22:00 | 53 | 37 | 55 | 30.22 | NE | 0 | 0.00 |
| 4 | 11/09 | 21:00 | 52 | 35 | 53 | 30.23 | ESE | 0 | 0.00 |
| 5 | 11/09 | 20:00 | 53 | 35 | 52 | 30.25 | NE | 0 | 0.00 |
| 6 | 11/09 | 19:00 | 53 | 35 | 51 | 30.24 | SE | 0 | 0.00 |
| 7 | 11/09 | 18:00 | 53 | 34 | 50 | 30.25 | E | 0 | 0.00 |
| 8 | 11/09 | 17:00 | 53 | 34 | 49 | 30.26 | SE | 0 | 0.00 |
| 9 | 11/09 | 16:00 | 54 | 33 | 46 | 30.28 | SE | 0 | 0.00 |
| 10 | 11/09 | 15:00 | 54 | 32 | 44 | 30.30 | S | 3 | 0.00 |
| 11 | 11/09 | 14:00 | 55 | 30 | 40 | 30.31 | SSW | 0 | 0.00 |
| 12 | 11/09 | 13:00 | 56 | 33 | 43 | 30.31 | SSW | 3 | 0.00 |
| 13 | 11/09 | 12:00 | 55 | 36 | 50 | 30.33 | SSW | 0 | 0.00 |
| 14 | 11/09 | 11:00 | 54 | 36 | 52 | 30.37 | S | 4 | 0.00 |
| 15 | 11/09 | 10:00 | 48 | 37 | 66 | 30.37 | SSE | 0 | 0.00 |
| 16 | 11/09 | 09:00 | 42 | 37 | 83 | 30.39 | NNE | 0 | 0.00 |
| 17 | 11/09 | 08:00 | 35 | 32 | 91 | 30.40 | S | 0 | 0.00 |
| 18 | 11/09 | 07:00 | 28 | 25 | 90 | 30.39 | W | 0 | 0.00 |
| 19 | 11/09 | 06:00 | 29 | 26 | 90 | 30.37 | S | 0 | 0.00 |
| 20 | 11/09 | 05:00 | 29 | 26 | 89 | 30.36 | ENE | 0 | 0.00 |
| 21 | 11/09 | 04:00 | 30 | 27 | 89 | 30.36 | S | 0 | 0.00 |
| 22 | 11/09 | 03:00 | 32 | 28 | 88 | 30.36 | NNE | 0 | 0.00 |
| 23 | 11/09 | 02:00 | 32 | 28 | 87 | 30.37 | S | 0 | 0.00 |
| 24 | 11/09 | 01:00 | 33 | 29 | 86 | 30.37 | S | 0 | 0.00 |